createdAt,value
2019-03-21T00:00:26.272Z,9.20
2019-03-21T00:05:35.564Z,8.97
2019-03-21T00:11:17.755Z,14.63
2019-03-21T00:16:37.067Z,10.30
2019-03-21T00:21:44.328Z,9.50
2019-03-21T00:26:56.172Z,9.00
2019-03-21T00:32:05.420Z,7.50
2019-03-21T00:37:13.731Z,7.23
2019-03-21T00:42:20.556Z,9.60
2019-03-21T00:47:27.524Z,11.47
2019-03-21T00:52:36.811Z,14.00
2019-03-21T00:57:44.576Z,13.00
2019-03-21T01:02:55.937Z,7.60
2019-03-21T01:08:09.323Z,10.13
2019-03-21T01:13:17.654Z,11.20
2019-03-21T01:18:26.991Z,9.20
2019-03-21T01:23:40.540Z,13.60
2019-03-21T01:29:06.268Z,9.23
2019-03-21T01:34:14.707Z,11.37
2019-03-21T01:39:23.324Z,9.93
2019-03-21T01:44:41.070Z,8.33
2019-03-21T01:49:44.103Z,11.17
2019-03-21T01:54:53.255Z,9.00
2019-03-21T02:00:00.862Z,10.40
2019-03-21T02:05:14.079Z,12.57
2019-03-21T02:10:23.117Z,14.43
2019-03-21T02:15:33.173Z,12.90
2019-03-21T02:20:43.212Z,9.80
2019-03-21T02:25:52.368Z,13.20
2019-03-21T02:31:02.229Z,10.53
2019-03-21T02:36:10.341Z,9.97
2019-03-21T02:41:18.415Z,11.50
2019-03-21T02:46:27.397Z,11.20
2019-03-21T02:51:36.713Z,10.13
2019-03-21T02:56:51.819Z,11.97
2019-03-21T03:02:01.814Z,9.30
2019-03-21T03:07:19.857Z,9.37
2019-03-21T03:12:36.553Z,14.17
2019-03-21T03:17:47.863Z,10.50
2019-03-21T03:23:04.403Z,12.03
2019-03-21T03:28:20.702Z,10.50
2019-03-21T03:33:29.157Z,8.77
2019-03-21T03:38:36.387Z,15.07
2019-03-21T03:43:47.375Z,12.67
2019-03-21T03:48:56.225Z,14.07
2019-03-21T03:54:06.153Z,7.93
2019-03-21T03:59:14.429Z,11.10
2019-03-21T04:04:33.358Z,11.03
2019-03-21T04:09:42.345Z,12.13
2019-03-21T04:14:53.115Z,12.30
2019-03-21T04:20:01.977Z,11.07
2019-03-21T04:25:12.586Z,11.70
2019-03-21T04:30:20.570Z,12.93
2019-03-21T04:35:30.198Z,12.13
2019-03-21T04:40:44.108Z,12.20
2019-03-21T04:46:02.929Z,13.50
2019-03-21T04:51:06.357Z,15.40
2019-03-21T04:56:13.968Z,13.87
2019-03-21T05:01:22.910Z,13.20
2019-03-21T05:06:38.467Z,14.00
2019-03-21T05:11:47.209Z,15.33
2019-03-21T05:16:56.263Z,12.73
2019-03-21T05:22:05.831Z,17.83
2019-03-21T05:27:15.313Z,18.60
2019-03-21T05:32:22.745Z,15.03
2019-03-21T05:37:34.565Z,14.13
2019-03-21T05:42:45.089Z,16.57
2019-03-21T05:47:51.900Z,18.60
2019-03-21T05:53:06.762Z,15.13
2019-03-21T05:59:12.304Z,17.87
2019-03-21T06:04:39.957Z,18.50
2019-03-21T06:09:48.687Z,11.10
2019-03-21T06:15:04.299Z,15.77
2019-03-21T06:20:43.077Z,17.07
2019-03-21T06:26:32.521Z,24.20
2019-03-21T06:31:39.459Z,15.50
2019-03-21T06:36:50.051Z,17.97
2019-03-21T06:41:59.849Z,14.47
2019-03-21T06:47:07.079Z,15.87
2019-03-21T06:52:14.211Z,16.70
2019-03-21T06:57:21.687Z,16.17
2019-03-21T07:02:31.152Z,12.83
2019-03-21T07:07:38.339Z,19.60
2019-03-21T07:12:45.937Z,13.80
2019-03-21T07:17:53.241Z,16.00
2019-03-21T07:23:00.104Z,16.93
2019-03-21T07:28:13.321Z,13.03
2019-03-21T07:33:22.829Z,14.90
2019-03-21T07:38:33.911Z,13.63
2019-03-21T07:43:42.299Z,13.97
2019-03-21T07:48:50.488Z,18.27
2019-03-21T07:54:00.476Z,13.23
2019-03-21T07:59:10.569Z,15.73
2019-03-21T08:04:17.681Z,16.70
2019-03-21T08:09:28.359Z,17.93
2019-03-21T08:14:39.195Z,13.03
2019-03-21T08:19:48.551Z,18.17
2019-03-21T08:24:58.694Z,13.83
2019-03-21T08:30:07.902Z,17.10
2019-03-21T08:35:18.988Z,15.23
2019-03-21T08:40:27.969Z,16.30
2019-03-21T08:45:35.233Z,17.03
2019-03-21T08:50:44.167Z,19.03
2019-03-21T08:55:54.686Z,21.80
2019-03-21T09:01:01.690Z,21.10
2019-03-21T09:06:11.122Z,20.07
2019-03-21T09:11:18.418Z,20.20
2019-03-21T09:16:26.460Z,23.27
2019-03-21T09:21:38.598Z,20.80
2019-03-21T09:26:45.482Z,20.60
2019-03-21T09:31:52.243Z,19.73
2019-03-21T09:37:03.989Z,21.73
2019-03-21T09:42:10.241Z,20.87
2019-03-21T09:52:24.975Z,15.80
2019-03-21T09:57:31.971Z,7.27
2019-03-21T10:02:39.222Z,8.23
2019-03-21T10:07:46.287Z,12.80
2019-03-21T10:12:55.433Z,18.93
2019-03-21T10:18:01.810Z,18.00
2019-03-21T10:23:09.870Z,12.23
2019-03-21T10:28:16.734Z,15.37
2019-03-21T10:33:28.384Z,15.00
2019-03-21T10:38:36.023Z,11.93
2019-03-21T10:43:47.579Z,11.67
2019-03-21T10:48:54.640Z,10.03
2019-03-21T10:54:01.520Z,11.10
2019-03-21T10:59:08.885Z,10.60
2019-03-21T11:04:17.141Z,14.00
2019-03-21T11:09:27.313Z,15.67
2019-03-21T11:14:36.027Z,9.23
2019-03-21T11:19:44.357Z,11.23
2019-03-21T11:24:53.769Z,11.27
2019-03-21T11:30:00.833Z,12.20
2019-03-21T11:35:07.783Z,13.10
2019-03-21T11:40:20.581Z,17.10
2019-03-21T11:45:29.797Z,16.47
2019-03-21T11:50:39.476Z,12.97
2019-03-21T11:55:49.817Z,17.07
2019-03-21T12:00:57.051Z,18.23
2019-03-21T12:06:06.844Z,13.17
2019-03-21T12:11:16.452Z,14.40
2019-03-21T12:16:24.876Z,15.40
2019-03-21T12:21:35.592Z,12.00
2019-03-21T12:26:42.303Z,13.23
2019-03-21T12:31:49.327Z,14.17
2019-03-21T12:36:56.063Z,12.03
2019-03-21T12:42:12.427Z,15.90
2019-03-21T12:47:30.853Z,12.53
2019-03-21T12:52:41.316Z,11.67
2019-03-21T12:57:47.432Z,13.10
2019-03-21T13:02:54.804Z,13.33
2019-03-21T13:08:06.589Z,13.77
2019-03-21T13:13:15.208Z,15.10
2019-03-21T13:18:22.112Z,17.73
2019-03-21T13:23:32.492Z,11.23
2019-03-21T13:28:45.151Z,8.77
2019-03-21T13:33:51.923Z,10.40
2019-03-21T13:38:58.931Z,10.80
2019-03-21T13:44:09.175Z,11.47
2019-03-21T13:49:20.178Z,14.87
2019-03-21T13:54:27.582Z,11.83
2019-03-21T13:59:34.800Z,13.80
2019-03-21T14:04:42.740Z,12.27
2019-03-21T14:09:51.593Z,8.70
2019-03-21T14:15:01.525Z,13.20
2019-03-21T14:20:11.840Z,12.47
2019-03-21T14:25:19.564Z,14.93
2019-03-21T14:30:27.124Z,15.73
2019-03-21T14:35:34.474Z,15.13
2019-03-21T14:40:42.654Z,15.07
2019-03-21T14:45:53.425Z,14.53
2019-03-21T14:51:05.529Z,11.60
2019-03-21T14:56:16.539Z,12.97
2019-03-21T15:01:23.953Z,12.63
2019-03-21T15:06:31.112Z,13.33
2019-03-21T15:11:42.535Z,10.13
2019-03-21T15:16:52.452Z,13.33
2019-03-21T15:22:03.704Z,13.67
2019-03-21T15:27:14.272Z,13.53
2019-03-21T15:32:25.181Z,10.57
2019-03-21T15:37:33.378Z,14.57
2019-03-21T15:42:43.327Z,19.30
2019-03-21T15:47:50.590Z,14.53
2019-03-21T15:52:58.661Z,18.10
2019-03-21T15:58:08.284Z,19.37
2019-03-21T16:03:21.178Z,15.50
2019-03-21T16:08:29.299Z,13.70
2019-03-21T16:13:47.563Z,16.37
2019-03-21T16:18:58.042Z,15.47
2019-03-21T16:24:05.869Z,15.13
2019-03-21T16:29:14.319Z,14.30
2019-03-21T16:34:21.592Z,14.57
2019-03-21T16:39:32.457Z,16.60
2019-03-21T16:44:39.669Z,14.40
2019-03-21T16:49:49.736Z,15.80
2019-03-21T16:55:00.945Z,16.93
2019-03-21T17:00:13.600Z,16.30
2019-03-21T17:05:22.328Z,18.27
2019-03-21T17:10:30.856Z,19.53
2019-03-21T17:15:42.778Z,18.80
2019-03-21T17:20:51.805Z,17.67
2019-03-21T17:26:00.348Z,14.73
2019-03-21T17:31:10.669Z,16.50
2019-03-21T17:36:22.623Z,18.03
2019-03-21T17:41:30.684Z,17.00
2019-03-21T17:46:38.685Z,31.27
2019-03-21T17:51:48.517Z,23.30
2019-03-21T17:56:56.836Z,20.03
2019-03-21T18:02:04.808Z,22.33
2019-03-21T18:07:16.679Z,23.03
2019-03-21T18:12:36.601Z,22.97
2019-03-21T18:17:47.353Z,24.33
2019-03-21T18:22:58.878Z,27.13
2019-03-21T18:28:09.097Z,27.83
2019-03-21T18:33:22.318Z,22.90
2019-03-21T18:38:35.923Z,20.73
2019-03-21T18:43:56.557Z,20.93
2019-03-21T18:49:08.907Z,22.27
2019-03-21T18:54:20.877Z,22.63
2019-03-21T18:59:32.138Z,22.40
2019-03-21T19:04:41.776Z,22.10
2019-03-21T19:09:51.237Z,22.47
2019-03-21T19:15:01.002Z,22.50
2019-03-21T19:20:13.127Z,23.17
2019-03-21T19:25:23.220Z,24.80
2019-03-21T19:30:31.073Z,24.47
2019-03-21T19:35:40.152Z,21.50
2019-03-21T19:40:52.364Z,21.70
2019-03-21T19:46:01.629Z,23.20
2019-03-21T19:51:11.293Z,25.47
2019-03-21T19:56:24.076Z,20.47
2019-03-21T20:01:33.667Z,28.57
2019-03-21T20:06:44.295Z,30.80
2019-03-21T20:11:53.916Z,38.20
2019-03-21T20:17:04.110Z,32.53
2019-03-21T20:22:13.650Z,29.73
2019-03-21T20:27:25.288Z,25.40
2019-03-21T20:32:38.913Z,28.33
2019-03-21T20:37:55.059Z,29.37
2019-03-21T20:43:05.831Z,24.20
2019-03-21T20:48:31.786Z,26.97
2019-03-21T20:53:39.954Z,29.97
2019-03-21T20:58:53.540Z,30.87
2019-03-21T21:04:05.144Z,28.60
2019-03-21T21:09:15.011Z,39.03
2019-03-21T21:14:26.470Z,31.83
2019-03-21T21:19:35.419Z,30.10
2019-03-21T21:24:50.784Z,30.63
2019-03-21T21:29:54.240Z,34.03
2019-03-21T21:35:01.912Z,32.50
2019-03-21T21:40:14.096Z,27.63
2019-03-21T21:45:22.924Z,33.50
2019-03-21T21:50:31.663Z,33.10
2019-03-21T21:55:41.078Z,32.60
2019-03-21T22:00:51.281Z,32.17
2019-03-21T22:06:00.315Z,31.03
2019-03-21T22:11:11.287Z,35.97
2019-03-21T22:16:18.889Z,37.57
2019-03-21T22:21:29.476Z,37.33
2019-03-21T22:26:37.699Z,28.27
2019-03-21T22:31:46.906Z,31.40
2019-03-21T22:36:55.727Z,32.53
2019-03-21T22:42:04.905Z,30.03
2019-03-21T22:47:16.530Z,32.60
2019-03-21T22:52:24.190Z,33.00
2019-03-21T22:57:39.178Z,25.47
2019-03-21T23:02:50.616Z,29.70
2019-03-21T23:07:57.956Z,30.17
2019-03-21T23:13:08.109Z,29.40
2019-03-21T23:18:16.716Z,27.93
2019-03-21T23:23:25.157Z,29.27
2019-03-21T23:28:35.821Z,32.97
2019-03-21T23:33:45.264Z,30.73
2019-03-21T23:38:54.643Z,31.80
2019-03-21T23:44:02.226Z,29.83
2019-03-21T23:49:19.810Z,30.73
2019-03-21T23:59:41.423Z,34.87
